Time;durP1;ratioP1;P1;durP2;ratioP2;P2;SDS_P1;SDS_P2;PMS_P1;PMS_P2;Temp;Humidity;BMP_temperature;BMP_pressure;BME280_temperature;BME280_humidity;BME280_pressure;Samples;Min_cycle;Max_cycle;Signal;HPM_P1;HPM_P2
2022/07/20 00:00:08;;;;;;;9.68;4.70;;;;;;;;;;6158099;23;20096;-82
2022/07/20 00:02:36;;;;;;;10.25;4.80;;;;;;;;;;6158014;23;20026;-82
2022/07/20 00:05:04;;;;;;;12.32;4.82;;;;;;;;;;6157888;23;20364;-82
2022/07/20 00:07:31;;;;;;;8.55;4.68;;;;;;;;;;6158015;23;20022;-82
2022/07/20 00:12:45;;;;;;;9.18;4.82;;;;;;;;;;6157744;23;20468;-82
2022/07/20 00:15:14;;;;;;;9.10;5.30;;;;;;;;;;6155679;23;20018;-82
2022/07/20 00:17:41;;;;;;;18.85;5.20;;;;;;;;;;6157578;23;20060;-82
2022/07/20 00:20:10;;;;;;;9.43;5.38;;;;;;;;;;6159019;23;20048;-82
2022/07/20 00:22:37;;;;;;;8.93;4.80;;;;;;;;;;6155670;23;20064;-82
2022/07/20 00:25:04;;;;;;;13.98;5.22;;;;;;;;;;6157666;23;20026;-82
2022/07/20 00:27:31;;;;;;;9.55;5.35;;;;;;;;;;6156002;23;20061;-82
2022/07/20 00:29:58;;;;;;;12.38;5.03;;;;;;;;;;6157723;23;20049;-82
2022/07/20 00:32:26;;;;;;;12.05;5.07;;;;;;;;;;6157942;23;20026;-82
2022/07/20 00:34:53;;;;;;;7.18;4.47;;;;;;;;;;6156698;23;20026;-81
2022/07/20 00:37:20;;;;;;;10.50;4.65;;;;;;;;;;6156654;23;20105;-82
2022/07/20 00:39:48;;;;;;;9.40;5.40;;;;;;;;;;6157180;23;20547;-82
2022/07/20 00:42:15;;;;;;;10.07;4.70;;;;;;;;;;6157213;23;20817;-82
2022/07/20 00:44:45;;;;;;;7.38;4.68;;;;;;;;;;6157873;23;20050;-82
2022/07/20 00:47:12;;;;;;;12.55;4.97;;;;;;;;;;6156861;23;20487;-82
2022/07/20 00:49:39;;;;;;;12.02;4.35;;;;;;;;;;6155667;23;20022;-82
2022/07/20 00:52:08;;;;;;;8.48;4.22;;;;;;;;;;6156141;23;20076;-82
2022/07/20 00:54:36;;;;;;;16.60;4.90;;;;;;;;;;6157394;23;20103;-82
2022/07/20 00:57:03;;;;;;;10.13;4.85;;;;;;;;;;6156615;23;20877;-82
2022/07/20 00:59:30;;;;;;;11.18;5.15;;;;;;;;;;6156452;23;20092;-81
2022/07/20 01:01:58;;;;;;;9.13;4.80;;;;;;;;;;6156509;23;20021;-82
2022/07/20 01:04:25;;;;;;;8.95;5.00;;;;;;;;;;6157142;23;20792;-82
2022/07/20 01:06:52;;;;;;;7.25;4.68;;;;;;;;;;6156063;23;20416;-82
2022/07/20 01:09:20;;;;;;;8.50;5.05;;;;;;;;;;6154880;23;20026;-82
2022/07/20 01:11:48;;;;;;;12.85;5.00;;;;;;;;;;6155967;23;20825;-82
2022/07/20 01:14:15;;;;;;;9.23;4.53;;;;;;;;;;6156329;23;20033;-82
2022/07/20 01:16:42;;;;;;;9.52;5.00;;;;;;;;;;6156237;23;20026;-82
2022/07/20 01:19:09;;;;;;;16.90;5.38;;;;;;;;;;6158696;23;20089;-82
2022/07/20 01:21:43;;;;;;;9.40;4.22;;;;;;;;;;6157972;23;20494;-82
2022/07/20 01:24:11;;;;;;;10.88;5.25;;;;;;;;;;6158710;23;20061;-82
2022/07/20 01:26:43;;;;;;;13.38;5.00;;;;;;;;;;6155454;23;20026;-81
2022/07/20 01:29:11;;;;;;;10.18;5.50;;;;;;;;;;6157316;23;20133;-82
2022/07/20 01:31:38;;;;;;;7.80;4.80;;;;;;;;;;6155976;23;20798;-82
2022/07/20 01:34:05;;;;;;;11.80;5.40;;;;;;;;;;6156904;23;20026;-82
2022/07/20 01:36:33;;;;;;;10.60;4.90;;;;;;;;;;6157381;23;20460;-82
2022/07/20 01:39:00;;;;;;;9.27;5.10;;;;;;;;;;6155923;23;20495;-82
2022/07/20 01:41:27;;;;;;;13.07;5.07;;;;;;;;;;6156941;23;20033;-82
2022/07/20 01:43:54;;;;;;;9.80;5.05;;;;;;;;;;6155919;23;20022;-82
2022/07/20 01:46:22;;;;;;;12.35;4.75;;;;;;;;;;6157776;23;20022;-82
2022/07/20 01:48:49;;;;;;;13.18;5.03;;;;;;;;;;6156136;23;20022;-82
2022/07/20 01:51:17;;;;;;;8.25;4.72;;;;;;;;;;6156708;23;20026;-82
2022/07/20 01:53:44;;;;;;;9.30;5.65;;;;;;;;;;6157592;23;20109;-81
2022/07/20 01:56:11;;;;;;;9.73;4.90;;;;;;;;;;6157418;23;20044;-82
2022/07/20 01:58:38;;;;;;;9.70;4.90;;;;;;;;;;6155186;23;20060;-82
2022/07/20 02:01:06;;;;;;;9.10;5.20;;;;;;;;;;6156915;23;20096;-82
2022/07/20 02:03:33;;;;;;;7.10;4.88;;;;;;;;;;6155257;23;20327;-82
2022/07/20 02:06:00;;;;;;;5.72;4.53;;;;;;;;;;6155805;23;20028;-82
2022/07/20 02:08:28;;;;;;;14.00;5.10;;;;;;;;;;6156073;23;20427;-82
2022/07/20 02:10:55;;;;;;;9.25;5.25;;;;;;;;;;6155753;23;20033;-82
2022/07/20 02:13:23;;;;;;;9.73;5.43;;;;;;;;;;6156610;23;20780;-82
2022/07/20 02:18:36;;;;;;;14.52;4.78;;;;;;;;;;6163123;23;20029;-82
2022/07/20 02:21:03;;;;;;;9.73;4.85;;;;;;;;;;6161547;23;20061;-82
2022/07/20 02:23:30;;;;;;;10.63;4.85;;;;;;;;;;6158469;23;20026;-82
2022/07/20 02:25:57;;;;;;;11.98;4.50;;;;;;;;;;6155400;23;20452;-82
2022/07/20 02:28:24;;;;;;;6.38;4.68;;;;;;;;;;6157041;23;20093;-82
2022/07/20 02:30:52;;;;;;;9.15;4.90;;;;;;;;;;6156963;23;20014;-82
2022/07/20 02:33:19;;;;;;;8.05;4.85;;;;;;;;;;6155156;23;20050;-82
2022/07/20 02:35:46;;;;;;;8.82;4.28;;;;;;;;;;6154523;23;20438;-82
2022/07/20 02:38:13;;;;;;;6.63;4.50;;;;;;;;;;6155218;23;20077;-82
2022/07/20 02:40:40;;;;;;;11.23;4.95;;;;;;;;;;6156804;23;20026;-82
2022/07/20 02:43:08;;;;;;;8.85;4.70;;;;;;;;;;6158368;23;20110;-82
2022/07/20 02:45:35;;;;;;;11.02;4.63;;;;;;;;;;6158698;23;20022;-82
2022/07/20 02:48:03;;;;;;;10.95;5.10;;;;;;;;;;6156604;23;20061;-82
2022/07/20 02:50:34;;;;;;;8.90;4.22;;;;;;;;;;6157951;23;20059;-82
2022/07/20 02:53:01;;;;;;;8.85;4.57;;;;;;;;;;6156534;23;20025;-82
2022/07/20 02:55:28;;;;;;;7.85;4.80;;;;;;;;;;6158718;23;20047;-83
2022/07/20 02:57:56;;;;;;;10.05;4.93;;;;;;;;;;6158317;23;20065;-82
2022/07/20 03:00:23;;;;;;;7.90;4.90;;;;;;;;;;6158736;23;20368;-82
2022/07/20 03:02:51;;;;;;;9.40;5.03;;;;;;;;;;6158473;23;20053;-82
2022/07/20 03:05:19;;;;;;;9.63;5.07;;;;;;;;;;6159227;23;20653;-82
2022/07/20 03:07:46;;;;;;;9.57;5.35;;;;;;;;;;6157546;23;20104;-83
2022/07/20 03:10:13;;;;;;;12.45;5.47;;;;;;;;;;6158729;23;20068;-83
2022/07/20 03:12:40;;;;;;;8.68;5.35;;;;;;;;;;6155908;23;20026;-83
2022/07/20 03:15:08;;;;;;;10.82;6.18;;;;;;;;;;6156541;23;20522;-82
2022/07/20 03:17:42;;;;;;;13.45;5.28;;;;;;;;;;6157852;23;20487;-82
2022/07/20 03:20:10;;;;;;;8.73;5.18;;;;;;;;;;6156618;23;20032;-83
2022/07/20 03:22:37;;;;;;;12.70;5.55;;;;;;;;;;6157151;23;20057;-82
2022/07/20 03:25:05;;;;;;;15.02;4.85;;;;;;;;;;6158078;23;20096;-83
2022/07/20 03:27:32;;;;;;;10.02;5.57;;;;;;;;;;6156779;23;20026;-83
2022/07/20 03:30:04;;;;;;;11.68;6.13;;;;;;;;;;6157046;23;20101;-82
2022/07/20 03:32:33;;;;;;;16.33;8.18;;;;;;;;;;6156618;23;20041;-83
2022/07/20 03:35:00;;;;;;;19.38;8.82;;;;;;;;;;6158365;23;20045;-82
2022/07/20 03:37:27;;;;;;;18.05;8.93;;;;;;;;;;6155559;23;20542;-82
2022/07/20 03:39:56;;;;;;;18.33;8.90;;;;;;;;;;6158196;23;20037;-82
2022/07/20 03:42:23;;;;;;;18.38;9.55;;;;;;;;;;6156303;23;20472;-82
2022/07/20 03:44:50;;;;;;;19.10;10.18;;;;;;;;;;6158353;23;20097;-82
2022/07/20 03:47:17;;;;;;;20.65;9.63;;;;;;;;;;6157864;23;20487;-82
2022/07/20 03:49:44;;;;;;;23.42;10.32;;;;;;;;;;6158042;23;20105;-82
2022/07/20 03:52:12;;;;;;;21.77;11.38;;;;;;;;;;6157789;23;20504;-83
2022/07/20 03:54:40;;;;;;;24.80;11.20;;;;;;;;;;6158533;23;20105;-82
2022/07/20 03:57:09;;;;;;;22.08;11.63;;;;;;;;;;6157727;23;20044;-82
2022/07/20 03:59:36;;;;;;;29.20;13.73;;;;;;;;;;6157013;23;20137;-83
2022/07/20 04:02:04;;;;;;;27.55;14.15;;;;;;;;;;6157546;23;20445;-83
2022/07/20 04:04:31;;;;;;;27.50;14.30;;;;;;;;;;6156290;23;20018;-83
2022/07/20 04:06:59;;;;;;;28.35;14.68;;;;;;;;;;6157647;23;20018;-82
2022/07/20 04:09:44;;;;;;;31.90;14.05;;;;;;;;;;6156112;23;20077;-83
2022/07/20 04:12:20;;;;;;;27.65;14.15;;;;;;;;;;6156556;23;20026;-83
2022/07/20 04:14:49;;;;;;;23.17;14.77;;;;;;;;;;6157820;23;20030;-82
2022/07/20 04:17:17;;;;;;;42.67;15.82;;;;;;;;;;6156644;23;20034;-82
2022/07/20 04:19:44;;;;;;;26.02;15.30;;;;;;;;;;6156535;23;20030;-83
2022/07/20 04:22:11;;;;;;;28.98;14.90;;;;;;;;;;6157975;23;20057;-83
2022/07/20 04:24:38;;;;;;;33.22;16.05;;;;;;;;;;6156930;23;20050;-82
2022/07/20 04:27:05;;;;;;;30.67;15.20;;;;;;;;;;6158054;23;20030;-83
2022/07/20 04:29:33;;;;;;;30.33;15.52;;;;;;;;;;6156640;23;20056;-83
2022/07/20 04:32:00;;;;;;;27.58;15.95;;;;;;;;;;6157576;23;20032;-83
2022/07/20 04:34:28;;;;;;;35.42;16.98;;;;;;;;;;6158045;23;20048;-83
2022/07/20 04:36:55;;;;;;;26.88;15.23;;;;;;;;;;6156170;23;20073;-82
2022/07/20 04:39:23;;;;;;;31.73;16.35;;;;;;;;;;6156578;23;20050;-82
2022/07/20 04:41:50;;;;;;;31.20;17.33;;;;;;;;;;6157513;23;20054;-83
2022/07/20 04:44:17;;;;;;;31.73;17.77;;;;;;;;;;6156422;23;20550;-83
2022/07/20 04:46:45;;;;;;;31.70;18.50;;;;;;;;;;6157913;23;20104;-83
2022/07/20 04:49:12;;;;;;;31.98;18.40;;;;;;;;;;6157223;23;20081;-82
2022/07/20 04:51:44;;;;;;;36.05;18.58;;;;;;;;;;6154544;23;20859;-83
2022/07/20 04:54:11;;;;;;;41.72;20.33;;;;;;;;;;6155693;23;20022;-83
2022/07/20 04:56:44;;;;;;;41.88;21.48;;;;;;;;;;6155892;23;20030;-83
2022/07/20 04:59:11;;;;;;;35.10;20.02;;;;;;;;;;6158219;23;20515;-82
2022/07/20 05:01:38;;;;;;;42.95;22.10;;;;;;;;;;6156992;23;20027;-83
2022/07/20 05:04:06;;;;;;;33.17;19.80;;;;;;;;;;6158032;23;20026;-83
2022/07/20 05:06:33;;;;;;;36.58;22.40;;;;;;;;;;6156233;23;20723;-83
2022/07/20 05:09:00;;;;;;;39.08;22.15;;;;;;;;;;6157783;23;20863;-83
2022/07/20 05:11:29;;;;;;;45.38;22.55;;;;;;;;;;6155028;23;20030;-83
2022/07/20 05:13:56;;;;;;;39.45;21.45;;;;;;;;;;6156108;23;20366;-83
2022/07/20 05:16:23;;;;;;;44.42;23.05;;;;;;;;;;6157086;23;20535;-83
2022/07/20 05:18:51;;;;;;;43.25;24.80;;;;;;;;;;6156870;23;20029;-83
2022/07/20 05:21:19;;;;;;;47.17;25.33;;;;;;;;;;6155934;23;20026;-83
2022/07/20 05:23:46;;;;;;;40.90;25.92;;;;;;;;;;6155430;23;20026;-82
2022/07/20 05:26:13;;;;;;;48.15;25.67;;;;;;;;;;6158057;23;20042;-83
2022/07/20 05:28:41;;;;;;;51.33;25.52;;;;;;;;;;6155764;23;20046;-83
2022/07/20 05:31:09;;;;;;;47.70;24.38;;;;;;;;;;6156074;23;20026;-83
2022/07/20 05:33:36;;;;;;;45.03;25.23;;;;;;;;;;6156413;23;20471;-83
2022/07/20 05:36:05;;;;;;;41.05;25.33;;;;;;;;;;6157360;23;20058;-83
2022/07/20 05:38:32;;;;;;;41.30;25.90;;;;;;;;;;6157087;23;20804;-83
2022/07/20 05:41:06;;;;;;;46.70;26.10;;;;;;;;;;6156276;23;20034;-83
2022/07/20 05:43:33;;;;;;;42.08;27.05;;;;;;;;;;6156542;23;20032;-83
2022/07/20 05:46:00;;;;;;;48.92;26.83;;;;;;;;;;6156687;23;20085;-83
2022/07/20 05:48:27;;;;;;;43.65;26.98;;;;;;;;;;6153480;23;20849;-83
2022/07/20 05:50:55;;;;;;;44.30;26.98;;;;;;;;;;6156001;23;20033;-83
2022/07/20 05:53:22;;;;;;;37.58;26.67;;;;;;;;;;6157039;23;20029;-83
2022/07/20 05:55:49;;;;;;;47.83;28.08;;;;;;;;;;6155768;23;20508;-83
2022/07/20 05:58:16;;;;;;;48.58;27.88;;;;;;;;;;6155121;23;20401;-84
2022/07/20 06:00:43;;;;;;;41.65;26.98;;;;;;;;;;6155124;23;20120;-88
2022/07/20 06:03:11;;;;;;;48.53;27.98;;;;;;;;;;6155023;23;20495;-83
2022/07/20 06:05:41;;;;;;;46.92;27.40;;;;;;;;;;6156294;23;20061;-83
2022/07/20 06:08:08;;;;;;;47.72;27.38;;;;;;;;;;6154586;23;20021;-83
2022/07/20 06:10:36;;;;;;;47.90;27.50;;;;;;;;;;6154425;23;20026;-83
2022/07/20 06:13:04;;;;;;;43.10;26.45;;;;;;;;;;6156216;23;20101;-83
2022/07/20 06:15:36;;;;;;;42.38;26.50;;;;;;;;;;6155803;23;20045;-82
2022/07/20 06:18:03;;;;;;;49.50;28.05;;;;;;;;;;6158310;23;20026;-81
2022/07/20 06:20:30;;;;;;;46.53;26.70;;;;;;;;;;6159338;23;20030;-83
2022/07/20 06:22:59;;;;;;;45.28;26.05;;;;;;;;;;6158048;23;20014;-83
2022/07/20 06:25:26;;;;;;;43.78;26.98;;;;;;;;;;6158194;23;20456;-84
2022/07/20 06:27:56;;;;;;;40.47;26.95;;;;;;;;;;6156333;23;20081;-84
2022/07/20 06:30:23;;;;;;;41.10;26.27;;;;;;;;;;6156420;23;20038;-84
2022/07/20 06:32:51;;;;;;;39.45;25.17;;;;;;;;;;6155457;23;20026;-84
2022/07/20 06:35:18;;;;;;;39.92;25.20;;;;;;;;;;6154372;23;20160;-85
2022/07/20 06:37:45;;;;;;;42.10;24.02;;;;;;;;;;6155496;23;20214;-84
2022/07/20 06:40:12;;;;;;;35.90;23.73;;;;;;;;;;6155038;23;20112;-84
2022/07/20 06:42:40;;;;;;;38.28;23.27;;;;;;;;;;6153422;23;20026;-85
2022/07/20 06:45:07;;;;;;;39.70;23.15;;;;;;;;;;6154288;23;20464;-86
2022/07/20 06:47:34;;;;;;;35.85;23.02;;;;;;;;;;6155746;23;20464;-85
2022/07/20 06:50:04;;;;;;;34.90;21.02;;;;;;;;;;6156595;23;20104;-84
2022/07/20 06:52:32;;;;;;;40.05;21.65;;;;;;;;;;6157527;23;20345;-84
2022/07/20 06:55:00;;;;;;;40.80;21.40;;;;;;;;;;6156867;23;20049;-84
2022/07/20 06:57:27;;;;;;;34.45;20.67;;;;;;;;;;6155141;23;20022;-84
2022/07/20 06:59:54;;;;;;;36.30;19.27;;;;;;;;;;6157239;23;20030;-84
2022/07/20 07:02:27;;;;;;;30.75;18.30;;;;;;;;;;6156670;23;20757;-84
2022/07/20 07:04:56;;;;;;;30.98;17.35;;;;;;;;;;6155900;23;20097;-84
2022/07/20 07:07:23;;;;;;;33.78;17.02;;;;;;;;;;6157281;23;20022;-83
2022/07/20 07:09:50;;;;;;;25.08;15.45;;;;;;;;;;6156383;23;20026;-84
2022/07/20 07:12:23;;;;;;;23.77;16.48;;;;;;;;;;6154720;23;20026;-85
2022/07/20 07:14:50;;;;;;;33.20;17.48;;;;;;;;;;6155283;23;20069;-84
2022/07/20 07:17:22;;;;;;;30.02;15.88;;;;;;;;;;6155456;23;20026;-84
2022/07/20 07:19:49;;;;;;;27.83;15.55;;;;;;;;;;6155547;23;20065;-84
2022/07/20 07:22:16;;;;;;;26.63;14.38;;;;;;;;;;6154545;23;20542;-85
2022/07/20 07:24:44;;;;;;;30.15;13.55;;;;;;;;;;6156108;23;20026;-85
2022/07/20 07:27:11;;;;;;;25.40;13.80;;;;;;;;;;6157107;23;20081;-84
2022/07/20 07:29:39;;;;;;;24.60;12.57;;;;;;;;;;6157743;23;20049;-85
2022/07/20 07:32:06;;;;;;;24.35;12.88;;;;;;;;;;6157212;23;20101;-84
2022/07/20 07:34:34;;;;;;;27.85;12.32;;;;;;;;;;6157960;23;20030;-84
2022/07/20 07:37:01;;;;;;;25.30;11.75;;;;;;;;;;6156995;23;20033;-84
2022/07/20 07:39:28;;;;;;;20.60;11.52;;;;;;;;;;6157174;23;20022;-84
2022/07/20 07:41:57;;;;;;;25.25;11.18;;;;;;;;;;6154624;23;20045;-85
2022/07/20 07:44:24;;;;;;;19.52;10.88;;;;;;;;;;6155604;23;20025;-84
2022/07/20 07:46:52;;;;;;;22.88;11.23;;;;;;;;;;6156442;23;21014;-84
2022/07/20 07:49:19;;;;;;;18.45;9.63;;;;;;;;;;6159996;23;20022;-84
2022/07/20 07:51:46;;;;;;;21.02;10.05;;;;;;;;;;6159796;23;20045;-85
2022/07/20 07:54:14;;;;;;;21.67;9.75;;;;;;;;;;6159459;23;20097;-84
2022/07/20 07:56:41;;;;;;;23.38;9.95;;;;;;;;;;6155988;23;20030;-85
2022/07/20 07:59:09;;;;;;;19.30;8.85;;;;;;;;;;6158676;23;20289;-85
2022/07/20 08:01:56;;;;;;;20.80;10.25;;;;;;;;;;6157674;23;20089;-85
2022/07/20 08:04:23;;;;;;;20.40;9.32;;;;;;;;;;6159237;23;20025;-84
2022/07/20 08:06:50;;;;;;;24.60;9.20;;;;;;;;;;6157697;23;20018;-85
2022/07/20 08:09:18;;;;;;;30.42;9.35;;;;;;;;;;6158762;23;20030;-85
2022/07/20 08:11:45;;;;;;;19.13;9.40;;;;;;;;;;6154607;23;20026;-84
2022/07/20 08:14:12;;;;;;;25.17;10.50;;;;;;;;;;6155723;23;20775;-85
2022/07/20 08:16:39;;;;;;;26.80;10.25;;;;;;;;;;6155830;23;20026;-85
2022/07/20 08:19:07;;;;;;;19.92;10.10;;;;;;;;;;6154671;23;20026;-84
2022/07/20 08:21:34;;;;;;;20.08;9.93;;;;;;;;;;6156538;23;20026;-85
2022/07/20 08:24:03;;;;;;;18.77;9.38;;;;;;;;;;6155028;23;20045;-86
2022/07/20 08:26:30;;;;;;;16.52;9.20;;;;;;;;;;6157267;23;21267;-86
2022/07/20 08:28:57;;;;;;;20.55;9.85;;;;;;;;;;6155466;23;20791;-86
2022/07/20 08:31:25;;;;;;;19.05;9.38;;;;;;;;;;6155137;23;20100;-85
2022/07/20 08:33:53;;;;;;;19.25;8.50;;;;;;;;;;6156303;23;20014;-86
2022/07/20 08:36:21;;;;;;;18.17;9.35;;;;;;;;;;6154465;23;20026;-85
2022/07/20 08:38:48;;;;;;;18.95;9.02;;;;;;;;;;6153899;23;20018;-86
2022/07/20 08:41:16;;;;;;;18.33;9.20;;;;;;;;;;6154769;23;20022;-85
2022/07/20 08:43:43;;;;;;;17.88;8.43;;;;;;;;;;6154628;23;20022;-86
2022/07/20 08:46:12;;;;;;;16.52;7.85;;;;;;;;;;6157072;23;20014;-85
2022/07/20 08:48:42;;;;;;;17.85;8.80;;;;;;;;;;6155495;23;20054;-86
2022/07/20 08:51:12;;;;;;;20.05;8.43;;;;;;;;;;6154745;23;20081;-85
2022/07/20 08:53:39;;;;;;;13.80;8.02;;;;;;;;;;6152495;23;20022;-85
2022/07/20 08:56:09;;;;;;;19.10;8.30;;;;;;;;;;6153710;23;20028;-85
2022/07/20 08:58:36;;;;;;;13.77;8.10;;;;;;;;;;6155957;23;20448;-86
2022/07/20 09:01:05;;;;;;;19.23;8.35;;;;;;;;;;6155489;23;20026;-85
2022/07/20 09:03:33;;;;;;;16.30;8.30;;;;;;;;;;6156091;23;20100;-86
2022/07/20 09:06:07;;;;;;;16.35;8.35;;;;;;;;;;6157531;23;20014;-85
2022/07/20 09:08:35;;;;;;;14.05;8.15;;;;;;;;;;6156784;23;20026;-85
2022/07/20 09:11:03;;;;;;;19.23;8.07;;;;;;;;;;6155444;23;20050;-86
2022/07/20 09:13:32;;;;;;;16.27;8.13;;;;;;;;;;6156912;23;20026;-85
2022/07/20 09:16:02;;;;;;;15.88;7.93;;;;;;;;;;6155171;23;20026;-85
2022/07/20 09:18:31;;;;;;;16.85;7.82;;;;;;;;;;6154914;23;20026;-85
2022/07/20 09:21:05;;;;;;;19.67;7.93;;;;;;;;;;6155523;23;20030;-86
2022/07/20 09:23:34;;;;;;;14.27;7.68;;;;;;;;;;6155526;23;20018;-85
2022/07/20 09:26:03;;;;;;;13.63;7.90;;;;;;;;;;6155191;23;20018;-85
2022/07/20 09:28:36;;;;;;;13.25;7.90;;;;;;;;;;6155212;23;20061;-85
2022/07/20 09:31:09;;;;;;;14.63;7.30;;;;;;;;;;6156850;23;20088;-86
2022/07/20 09:33:36;;;;;;;;;;;;;;;;;;6157820;23;20050;-85
2022/07/20 09:36:04;;;;;;;11.55;6.43;;;;;;;;;;6155086;23;41827;-85
2022/07/20 09:38:37;;;;;;;14.82;6.63;;;;;;;;;;6155903;23;20108;-86
2022/07/20 09:41:22;;;;;;;13.25;6.70;;;;;;;;;;6154897;23;20026;-85
2022/07/20 09:43:50;;;;;;;14.43;7.15;;;;;;;;;;6154073;23;20022;-86
2022/07/20 09:46:18;;;;;;;18.13;7.25;;;;;;;;;;6152435;23;20018;-86
2022/07/20 09:48:47;;;;;;;14.13;6.75;;;;;;;;;;6154749;23;20030;-86
2022/07/20 09:51:24;;;;;;;11.63;6.95;;;;;;;;;;6155621;23;20460;-86
2022/07/20 09:53:53;;;;;;;15.30;7.22;;;;;;;;;;6155947;23;20162;-86
2022/07/20 09:56:21;;;;;;;14.77;6.93;;;;;;;;;;6157649;23;20726;-85
2022/07/20 09:58:59;;;;;;;16.27;7.07;;;;;;;;;;6159655;23;20029;-85
2022/07/20 10:01:30;;;;;;;15.32;7.35;;;;;;;;;;6158317;23;20387;-85
2022/07/20 10:04:02;;;;;;;15.57;7.22;;;;;;;;;;6157602;23;20519;-86
2022/07/20 10:06:29;;;;;;;14.70;7.10;;;;;;;;;;6157060;23;20049;-85
2022/07/20 10:09:00;;;;;;;13.02;7.18;;;;;;;;;;6155356;23;20032;-83
2022/07/20 10:11:27;;;;;;;14.90;6.97;;;;;;;;;;6155308;23;20119;-84
2022/07/20 10:13:55;;;;;;;14.07;7.22;;;;;;;;;;6155062;23;20053;-84
2022/07/20 10:16:27;;;;;;;15.70;7.20;;;;;;;;;;6154763;23;20048;-84
2022/07/20 10:18:56;;;;;;;15.60;6.57;;;;;;;;;;6157063;23;20026;-84
2022/07/20 10:21:38;;;;;;;18.23;6.68;;;;;;;;;;6156806;23;20100;-84
2022/07/20 10:24:14;;;;;;;12.93;6.40;;;;;;;;;;6157475;23;20030;-83
2022/07/20 10:26:42;;;;;;;13.55;6.47;;;;;;;;;;6156255;23;20073;-84
2022/07/20 10:29:09;;;;;;;15.18;6.35;;;;;;;;;;6157177;23;20053;-84
2022/07/20 10:31:50;;;;;;;16.13;6.18;;;;;;;;;;6156707;23;20022;-84
2022/07/20 10:34:50;;;;;;;12.02;5.60;;;;;;;;;;6156909;23;20022;-85
2022/07/20 10:37:26;;;;;;;9.98;5.50;;;;;;;;;;6078097;23;20022;-85
2022/07/20 10:40:12;;;;;;;10.13;4.70;;;;;;;;;;6155974;23;20129;-84
2022/07/20 10:42:47;;;;;;;11.82;4.55;;;;;;;;;;6157341;23;20093;-84
2022/07/20 10:45:14;;;;;;;10.95;4.28;;;;;;;;;;6155928;23;20773;-84
2022/07/20 10:47:48;;;;;;;7.07;3.70;;;;;;;;;;6157132;23;20015;-83
2022/07/20 10:50:23;;;;;;;12.57;4.30;;;;;;;;;;6158279;23;20050;-83
2022/07/20 10:52:53;;;;;;;6.28;3.90;;;;;;;;;;6158357;23;20077;-85
2022/07/20 10:55:43;;;;;;;9.18;4.35;;;;;;;;;;6158909;23;20022;-84
2022/07/20 10:58:12;;;;;;;9.30;4.18;;;;;;;;;;6158361;23;20419;-85
2022/07/20 11:00:40;;;;;;;7.90;3.78;;;;;;;;;;6158018;23;20517;-84
2022/07/20 11:03:21;;;;;;;8.30;4.30;;;;;;;;;;6159826;23;20022;-84
2022/07/20 11:06:00;;;;;;;12.88;4.32;;;;;;;;;;6159620;23;20018;-84
2022/07/20 11:08:28;;;;;;;7.55;4.05;;;;;;;;;;6162067;23;20064;-84
2022/07/20 11:11:01;;;;;;;11.32;3.90;;;;;;;;;;6163037;23;20032;-84
2022/07/20 11:13:29;;;;;;;8.73;3.92;;;;;;;;;;6160645;23;20018;-85
2022/07/20 11:16:01;;;;;;;8.65;4.03;;;;;;;;;;6158694;23;20101;-84
2022/07/20 11:18:33;;;;;;;7.80;4.10;;;;;;;;;;6158592;23;20026;-85
2022/07/20 11:21:14;;;;;;;9.88;4.35;;;;;;;;;;6157367;23;20025;-84
2022/07/20 11:23:46;;;;;;;9.60;4.30;;;;;;;;;;6155808;23;20014;-84
2022/07/20 11:26:15;;;;;;;12.75;4.50;;;;;;;;;;6156974;23;20022;-85
2022/07/20 11:28:50;;;;;;;11.30;3.90;;;;;;;;;;6157089;23;20025;-85
2022/07/20 11:31:20;;;;;;;7.93;4.18;;;;;;;;;;6157644;23;20022;-85
2022/07/20 11:33:50;;;;;;;11.15;4.72;;;;;;;;;;6156804;23;20018;-84
2022/07/20 11:36:21;;;;;;;9.55;4.32;;;;;;;;;;6157267;23;20049;-85
2022/07/20 11:38:50;;;;;;;7.88;4.43;;;;;;;;;;6157341;23;20092;-85
2022/07/20 11:41:23;;;;;;;8.75;5.00;;;;;;;;;;6156900;23;20779;-85
2022/07/20 11:43:51;;;;;;;8.33;4.70;;;;;;;;;;6157152;23;20021;-84
2022/07/20 11:46:22;;;;;;;8.93;4.35;;;;;;;;;;6156898;23;20592;-84
2022/07/20 11:48:53;;;;;;;9.30;4.03;;;;;;;;;;6156823;23;20033;-85
2022/07/20 11:51:44;;;;;;;11.70;4.25;;;;;;;;;;6159083;23;20073;-84
2022/07/20 11:54:12;;;;;;;7.88;4.00;;;;;;;;;;6156639;23;20037;-83
2022/07/20 11:56:48;;;;;;;7.13;3.88;;;;;;;;;;6159356;23;20109;-84
2022/07/20 11:59:16;;;;;;;12.32;4.15;;;;;;;;;;6159553;23;20041;-84
2022/07/20 12:01:43;;;;;;;9.82;4.20;;;;;;;;;;6159046;23;20017;-84
2022/07/20 12:04:13;;;;;;;9.43;4.05;;;;;;;;;;6159339;23;20050;-85
2022/07/20 12:06:51;;;;;;;7.30;3.47;;;;;;;;;;6159381;23;20281;-84
2022/07/20 12:09:23;;;;;;;9.32;3.58;;;;;;;;;;6156468;23;20452;-84
2022/07/20 12:12:04;;;;;;;7.55;3.58;;;;;;;;;;6155490;23;20060;-84
2022/07/20 12:14:41;;;;;;;9.52;4.00;;;;;;;;;;6155697;23;20105;-84
2022/07/20 12:17:26;;;;;;;8.82;3.88;;;;;;;;;;6156610;23;20022;-85
2022/07/20 12:20:04;;;;;;;6.15;3.70;;;;;;;;;;6156892;23;20021;-85
2022/07/20 12:22:55;;;;;;;8.05;3.70;;;;;;;;;;6157395;23;20095;-85
2022/07/20 12:25:48;;;;;;;;;;;;;;;;;;;;;
2022/07/20 12:28:29;;;;;;;11.68;3.40;;;;;;;;;;6156232;23;20124;-85
2022/07/20 12:31:31;;;;;;;;;;;;;;;;;;;;;
2022/07/20 12:34:21;;;;;;;7.53;3.40;;;;;;;;;;6159038;23;20034;-85
2022/07/20 12:37:03;;;;;;;5.85;3.60;;;;;;;;;;6157368;23;20051;-85
2022/07/20 12:39:57;;;;;;;6.30;3.58;;;;;;;;;;6157106;23;20551;-85
2022/07/20 12:42:37;;;;;;;7.80;3.78;;;;;;;;;;6158307;23;20018;-86
2022/07/20 12:45:23;;;;;;;8.88;3.75;;;;;;;;;;6154787;23;20041;-85
2022/07/20 12:47:58;;;;;;;8.57;3.38;;;;;;;;;;6156948;23;20026;-85
2022/07/20 12:50:35;;;;;;;7.88;3.90;;;;;;;;;;6157541;23;21148;-85
2022/07/20 12:53:07;;;;;;;10.65;4.35;;;;;;;;;;6157350;23;20060;-85
2022/07/20 12:58:53;;;;;;;6.63;3.60;;;;;;;;;;6155824;23;20765;-83
2022/07/20 13:01:42;;;;;;;9.07;3.67;;;;;;;;;;6149294;23;20029;-85
2022/07/20 13:04:42;;;;;;;11.73;3.88;;;;;;;;;;6153083;23;20261;-85
2022/07/20 13:07:49;;;;;;;;;;;;;;;;;;;;;
2022/07/20 13:10:32;;;;;;;6.65;3.72;;;;;;;;;;6158416;23;20360;-85
2022/07/20 13:13:30;;;;;;;10.95;4.30;;;;;;;;;;6099178;23;20023;-85
2022/07/20 13:16:31;;;;;;;8.90;3.95;;;;;;;;;;6099277;23;20109;-85
2022/07/20 13:19:24;;;;;;;9.68;3.67;;;;;;;;;;6098474;23;20837;-85
2022/07/20 13:22:12;;;;;;;7.87;4.17;;;;;;;;;;6099070;23;20149;-85
2022/07/20 13:24:50;;;;;;;6.82;3.67;;;;;;;;;;6098519;23;20025;-85
2022/07/20 13:27:23;;;;;;;10.38;4.80;;;;;;;;;;6100320;23;20093;-85
2022/07/20 13:30:00;;;;;;;11.20;4.53;;;;;;;;;;6125881;23;20063;-85
2022/07/20 13:32:50;;;;;;;7.57;4.20;;;;;;;;;;6126665;23;20021;-86
2022/07/20 13:38:57;;;;;;;9.60;4.72;;;;;;;;;;6125378;23;20089;-86
2022/07/20 13:41:46;;;;;;;10.23;4.43;;;;;;;;;;6122980;23;20030;-87
2022/07/20 13:44:23;;;;;;;14.02;4.80;;;;;;;;;;6125642;23;20747;-86
2022/07/20 13:47:10;;;;;;;12.93;5.03;;;;;;;;;;6126504;23;20053;-86
2022/07/20 13:53:55;;;;;;;10.70;5.45;;;;;;;;;;6126080;23;20026;-86
2022/07/20 13:56:34;;;;;;;9.88;5.15;;;;;;;;;;6126694;23;20018;-86
2022/07/20 13:59:39;;;;;;;9.82;5.20;;;;;;;;;;6110255;23;20022;-86
2022/07/20 14:02:08;;;;;;;11.43;5.25;;;;;;;;;;6122847;23;20023;-86
2022/07/20 14:04:54;;;;;;;10.32;5.78;;;;;;;;;;6098738;23;20066;-86
2022/07/20 14:07:31;;;;;;;11.77;5.55;;;;;;;;;;6098426;23;20102;-86
2022/07/20 14:10:41;;;;;;;8.10;4.88;;;;;;;;;;6081040;23;20051;-86
2022/07/20 14:14:16;;;;;;;9.48;5.45;;;;;;;;;;6038405;23;20064;-86
2022/07/20 14:17:07;;;;;;;10.90;5.43;;;;;;;;;;6035927;23;20028;-87
2022/07/20 14:20:05;;;;;;;13.82;5.82;;;;;;;;;;6035729;23;20104;-87
2022/07/20 14:23:02;;;;;;;10.82;6.18;;;;;;;;;;6036276;23;20084;-85
2022/07/20 14:26:05;;;;;;;11.38;6.80;;;;;;;;;;6036883;23;20028;-87
2022/07/20 14:28:49;;;;;;;10.38;6.63;;;;;;;;;;6033423;23;20145;-86
2022/07/20 14:31:31;;;;;;;15.55;7.18;;;;;;;;;;6034227;23;20051;-86
2022/07/20 14:34:05;;;;;;;11.77;6.25;;;;;;;;;;6036468;23;20099;-86
2022/07/20 14:36:37;;;;;;;12.15;6.65;;;;;;;;;;6038397;23;20803;-85
2022/07/20 14:39:05;;;;;;;11.25;6.95;;;;;;;;;;6097685;23;20070;-85
2022/07/20 14:41:35;;;;;;;12.85;6.18;;;;;;;;;;6097748;23;20019;-86
2022/07/20 14:44:09;;;;;;;10.68;6.10;;;;;;;;;;6097592;23;20120;-86
2022/07/20 14:46:58;;;;;;;14.07;6.68;;;;;;;;;;6097416;23;20065;-85
2022/07/20 14:49:32;;;;;;;12.98;6.28;;;;;;;;;;6098689;23;20034;-86
2022/07/20 14:52:07;;;;;;;13.15;7.03;;;;;;;;;;6098788;23;20042;-87
2022/07/20 14:54:35;;;;;;;11.65;6.22;;;;;;;;;;6098797;23;20023;-86
2022/07/20 14:57:07;;;;;;;12.18;7.35;;;;;;;;;;6101044;23;20019;-87
2022/07/20 14:59:41;;;;;;;10.75;6.75;;;;;;;;;;6100846;23;20748;-86
2022/07/20 15:02:24;;;;;;;14.65;6.82;;;;;;;;;;6101351;23;20043;-87
2022/07/20 15:05:04;;;;;;;12.95;6.80;;;;;;;;;;6100403;23;20023;-87
2022/07/20 15:07:41;;;;;;;12.65;6.75;;;;;;;;;;6099959;23;20075;-86
2022/07/20 15:10:33;;;;;;;11.18;6.32;;;;;;;;;;6099983;23;20815;-86
2022/07/20 15:13:01;;;;;;;12.25;6.80;;;;;;;;;;6156486;23;20114;-85
2022/07/20 15:15:34;;;;;;;11.95;7.00;;;;;;;;;;6159045;23;20018;-86